createdAt,value
2023-06-05T00:01:18.820Z,99798.28
2023-06-05T00:03:22.040Z,99792.09
2023-06-05T00:05:27.749Z,99795.19
2023-06-05T00:07:30.748Z,99800.16
2023-06-05T00:09:33.620Z,99802.44
2023-06-05T00:11:38.896Z,99797.25
2023-06-05T00:13:42.051Z,99801.78
2023-06-05T00:15:44.984Z,99802.41
2023-06-05T00:17:48.589Z,99804.25
2023-06-05T00:19:51.844Z,99797.66
2023-06-05T00:21:54.778Z,99799.31
2023-06-05T00:23:57.959Z,99795.97
2023-06-05T00:26:00.964Z,99801.16
2023-06-05T00:28:05.508Z,99802.19
2023-06-05T00:30:10.107Z,99795.59
2023-06-05T00:32:13.241Z,99798.06
2023-06-05T00:34:16.170Z,99795.41
2023-06-05T00:36:20.317Z,99791.50
2023-06-05T00:38:23.501Z,99797.66
2023-06-05T00:40:26.564Z,99794.16
2023-06-05T00:42:29.472Z,99796.63
2023-06-05T00:44:33.987Z,99795.63
2023-06-05T00:46:37.011Z,99800.16
2023-06-05T00:48:41.977Z,99792.94
2023-06-05T00:50:45.062Z,99789.84
2023-06-05T00:52:48.762Z,99781.19
2023-06-05T00:54:51.833Z,99779.94
2023-06-05T00:56:55.443Z,99780.75
2023-06-05T00:58:59.676Z,99786.34
2023-06-05T01:01:07.571Z,99777.88
2023-06-05T01:03:13.455Z,99779.31
2023-06-05T01:05:16.764Z,99785.88
2023-06-05T01:07:22.984Z,99781.97
2023-06-05T01:09:26.306Z,99776.81
2023-06-05T01:11:38.585Z,99774.78
2023-06-05T01:13:48.856Z,99772.50
2023-06-05T01:15:54.776Z,99768.78
2023-06-05T01:18:00.459Z,99772.72
2023-06-05T01:20:06.175Z,99777.66
2023-06-05T01:22:09.627Z,99779.50
2023-06-05T01:24:17.208Z,99775.81
2023-06-05T01:26:27.569Z,99772.06
2023-06-05T01:28:33.232Z,99774.53
2023-06-05T01:30:46.010Z,99772.91
2023-06-05T01:32:55.154Z,99765.91
2023-06-05T01:34:59.880Z,99773.50
2023-06-05T01:37:04.209Z,99769.78
2023-06-05T01:39:08.331Z,99774.25
2023-06-05T01:41:14.406Z,99770.69
2023-06-05T01:43:18.824Z,99773.84
2023-06-05T01:45:22.270Z,99776.78
2023-06-05T01:47:25.852Z,99769.75
2023-06-05T01:49:28.940Z,99769.75
2023-06-05T01:51:31.968Z,99779.50
2023-06-05T01:53:34.915Z,99775.59
2023-06-05T01:55:40.494Z,99773.00
2023-06-05T01:57:45.869Z,99775.69
2023-06-05T01:59:51.034Z,99775.91
2023-06-05T02:01:54.093Z,99777.34
2023-06-05T02:03:59.027Z,99769.03
2023-06-05T02:06:02.440Z,99770.50
2023-06-05T02:08:06.947Z,99772.72
2023-06-05T02:10:11.487Z,99769.22
2023-06-05T02:12:16.796Z,99767.81
2023-06-05T02:14:21.555Z,99764.72
2023-06-05T02:16:24.994Z,99772.56
2023-06-05T02:18:28.694Z,99763.50
2023-06-05T02:20:33.594Z,99772.38
2023-06-05T02:22:36.623Z,99766.00
2023-06-05T02:24:39.607Z,99766.22
2023-06-05T02:26:42.485Z,99770.09
2023-06-05T02:28:46.102Z,99771.94
2023-06-05T02:30:51.361Z,99769.84
2023-06-05T02:33:02.684Z,99770.72
2023-06-05T02:35:06.962Z,99774.03
2023-06-05T02:37:10.167Z,99777.09
2023-06-05T02:39:13.644Z,99781.38
2023-06-05T02:41:17.119Z,99777.97
2023-06-05T02:43:21.345Z,99777.78
2023-06-05T02:45:24.491Z,99775.72
2023-06-05T02:47:29.005Z,99774.75
2023-06-05T02:49:34.261Z,99771.28
2023-06-05T02:51:37.208Z,99774.53
2023-06-05T02:53:41.372Z,99780.25
2023-06-05T02:55:45.162Z,99784.28
2023-06-05T02:57:51.080Z,99771.94
2023-06-05T02:59:59.885Z,99773.56
2023-06-05T03:02:04.004Z,99779.09
2023-06-05T03:04:08.996Z,99768.28
2023-06-05T03:06:14.174Z,99770.13
2023-06-05T03:08:22.114Z,99770.38
2023-06-05T03:10:25.519Z,99771.47
2023-06-05T03:12:28.954Z,99763.25
2023-06-05T03:14:32.533Z,99772.53
2023-06-05T03:16:42.904Z,99770.91
2023-06-05T03:18:47.274Z,99776.69
2023-06-05T03:20:56.197Z,99768.22
2023-06-05T03:22:59.775Z,99773.41
2023-06-05T03:25:02.721Z,99775.06
2023-06-05T03:27:07.233Z,99778.38
2023-06-05T03:29:11.457Z,99779.63
2023-06-05T03:31:14.802Z,99780.03
2023-06-05T03:33:21.136Z,99780.03
2023-06-05T03:35:27.791Z,99782.16
2023-06-05T03:37:37.356Z,99775.75
2023-06-05T03:39:41.646Z,99782.94
2023-06-05T03:41:44.724Z,99786.69
2023-06-05T03:43:48.162Z,99787.09
2023-06-05T03:45:51.352Z,99789.34
2023-06-05T03:47:57.473Z,99788.81
2023-06-05T03:50:02.044Z,99787.53
2023-06-05T03:52:09.282Z,99794.38
2023-06-05T03:54:14.893Z,99792.50
2023-06-05T03:56:18.073Z,99790.25
2023-06-05T03:58:22.306Z,99798.72
2023-06-05T04:00:28.474Z,99789.00
2023-06-05T04:02:34.706Z,99787.56
2023-06-05T04:04:38.018Z,99784.03
2023-06-05T04:06:41.974Z,99792.09
2023-06-05T04:08:46.294Z,99783.84
2023-06-05T04:10:50.790Z,99783.63
2023-06-05T04:12:54.241Z,99782.38
2023-06-05T04:14:59.748Z,99786.53
2023-06-05T04:17:03.125Z,99785.88
2023-06-05T04:19:08.007Z,99784.25
2023-06-05T04:21:11.846Z,99781.53
2023-06-05T04:23:14.896Z,99783.38
2023-06-05T04:25:19.878Z,99786.69
2023-06-05T04:27:29.969Z,99787.03
2023-06-05T04:29:33.806Z,99789.50
2023-06-05T04:31:37.005Z,99793.47
2023-06-05T04:33:40.047Z,99790.34
2023-06-05T04:35:43.154Z,99792.59
2023-06-05T04:37:47.104Z,99787.16
2023-06-05T04:39:50.136Z,99783.22
2023-06-05T04:42:06.801Z,99793.13
2023-06-05T04:44:18.441Z,99786.41
2023-06-05T04:46:22.057Z,99791.56
2023-06-05T04:48:25.034Z,99780.16
2023-06-05T04:50:31.358Z,99787.13
2023-06-05T04:52:44.453Z,99782.47
2023-06-05T04:54:47.855Z,99787.16
2023-06-05T04:56:51.154Z,99784.81
2023-06-05T04:58:56.316Z,99776.69
2023-06-05T05:01:07.976Z,99782.84
2023-06-05T05:03:15.382Z,99779.84
2023-06-05T05:05:18.529Z,99784.09
2023-06-05T05:07:23.723Z,99781.41
2023-06-05T05:09:26.929Z,99769.75
2023-06-05T05:11:30.293Z,99782.91
2023-06-05T05:13:33.747Z,99780.03
2023-06-05T05:15:37.044Z,99781.97
2023-06-05T05:17:42.466Z,99780.25
2023-06-05T05:19:45.494Z,99782.97
2023-06-05T05:21:49.917Z,99776.84
2023-06-05T05:23:53.232Z,99791.59
2023-06-05T05:25:56.423Z,99790.03
2023-06-05T05:27:59.445Z,99793.69
2023-06-05T05:30:02.392Z,99779.19
2023-06-05T05:32:06.956Z,99783.44
2023-06-05T05:34:11.703Z,99782.13
2023-06-05T05:36:16.062Z,99787.50
2023-06-05T05:38:19.067Z,99782.66
2023-06-05T05:40:22.151Z,99788.91
2023-06-05T05:42:25.351Z,99783.59
2023-06-05T05:44:28.281Z,99796.66
2023-06-05T05:46:31.378Z,99789.13
2023-06-05T05:48:37.378Z,99792.50
2023-06-05T05:50:42.148Z,99798.66
2023-06-05T05:52:46.252Z,99802.34
2023-06-05T05:54:49.272Z,99806.22
2023-06-05T05:56:52.463Z,99798.31
2023-06-05T05:58:55.493Z,99798.34
2023-06-05T06:00:58.862Z,99797.22
2023-06-05T06:03:01.909Z,99795.63
2023-06-05T06:05:05.921Z,99802.44
2023-06-05T06:07:10.832Z,99794.16
2023-06-05T06:09:15.203Z,99795.88
2023-06-05T06:11:18.330Z,99790.50
2023-06-05T06:13:21.264Z,99797.28
2023-06-05T06:15:24.517Z,99793.91
2023-06-05T06:17:28.739Z,99804.41
2023-06-05T06:19:32.674Z,99798.63
2023-06-05T06:21:35.833Z,99801.88
2023-06-05T06:23:40.336Z,99797.81
2023-06-05T06:25:44.070Z,99804.88
2023-06-05T06:27:49.804Z,99807.81
2023-06-05T06:29:56.742Z,99807.22
2023-06-05T06:31:59.671Z,99807.63
2023-06-05T06:34:02.626Z,99814.56
2023-06-05T06:36:06.286Z,99809.53
2023-06-05T06:38:09.272Z,99813.19
2023-06-05T06:40:13.732Z,99808.47
2023-06-05T06:42:17.011Z,99806.97
2023-06-05T06:44:29.851Z,99802.66
2023-06-05T06:46:33.213Z,99804.63
2023-06-05T06:48:36.472Z,99807.47
2023-06-05T06:50:39.845Z,99805.38
2023-06-05T06:52:42.751Z,99804.75
2023-06-05T06:54:45.952Z,99801.97
2023-06-05T06:56:51.455Z,99804.28
2023-06-05T06:58:55.821Z,99813.19
2023-06-05T07:00:58.785Z,99800.91
2023-06-05T07:03:02.194Z,99803.31
2023-06-05T07:05:07.521Z,99797.69
2023-06-05T07:07:12.089Z,99794.72
2023-06-05T07:09:15.656Z,99806.13
2023-06-05T07:11:18.585Z,99805.75
2023-06-05T07:13:23.445Z,99798.53
2023-06-05T07:15:26.464Z,99804.63
2023-06-05T07:17:31.628Z,99805.41
2023-06-05T07:19:36.295Z,99812.81
2023-06-05T07:21:39.388Z,99806.19
2023-06-05T07:23:43.497Z,99805.41
2023-06-05T07:25:47.046Z,99805.19
2023-06-05T07:27:50.129Z,99811.34
2023-06-05T07:29:54.783Z,99814.78
2023-06-05T07:31:59.213Z,99810.88
2023-06-05T07:34:02.254Z,99815.84
2023-06-05T07:36:05.466Z,99814.81
2023-06-05T07:38:08.414Z,99812.38
2023-06-05T07:40:12.097Z,99801.06
2023-06-05T07:42:16.559Z,99810.56
2023-06-05T07:44:22.732Z,99809.22
2023-06-05T07:46:27.350Z,99804.63
2023-06-05T07:48:30.506Z,99798.66
2023-06-05T07:50:33.395Z,99796.19
2023-06-05T07:52:37.746Z,99790.38
2023-06-05T07:54:40.747Z,99788.31
2023-06-05T07:56:44.551Z,99796.06
2023-06-05T07:58:48.109Z,99798.22
2023-06-05T08:00:51.301Z,99791.03
2023-06-05T08:02:56.143Z,99796.19
2023-06-05T08:04:59.754Z,99787.94
2023-06-05T08:07:02.977Z,99793.22
2023-06-05T08:09:06.129Z,99779.53
2023-06-05T08:11:09.791Z,99784.84
2023-06-05T08:13:12.965Z,99784.75
2023-06-05T08:15:16.622Z,99783.53
2023-06-05T08:17:19.653Z,99778.91
2023-06-05T08:19:24.210Z,99783.78
2023-06-05T08:21:27.299Z,99778.00
2023-06-05T08:23:30.895Z,99775.78
2023-06-05T08:25:34.067Z,99780.00
2023-06-05T08:27:37.308Z,99783.75
2023-06-05T08:29:40.262Z,99784.22
2023-06-05T08:31:43.225Z,99780.69
2023-06-05T08:33:46.518Z,99782.09
2023-06-05T08:35:51.280Z,99776.59
2023-06-05T08:37:54.294Z,99786.78
2023-06-05T08:39:59.911Z,99776.56
2023-06-05T08:42:04.836Z,99780.63
2023-06-05T08:44:07.791Z,99791.31
2023-06-05T08:46:12.747Z,99779.19
2023-06-05T08:48:18.597Z,99785.06
2023-06-05T08:50:21.957Z,99785.78
2023-06-05T08:52:28.706Z,99775.41
2023-06-05T08:54:38.057Z,99779.06
2023-06-05T08:56:41.458Z,99787.69
2023-06-05T08:58:45.875Z,99787.88
2023-06-05T09:00:50.378Z,99773.66
2023-06-05T09:02:53.528Z,99770.63
2023-06-05T09:04:58.642Z,99771.16
2023-06-05T09:07:02.022Z,99768.13
2023-06-05T09:09:07.244Z,99781.28
2023-06-05T09:11:24.046Z,99782.41
2023-06-05T09:13:45.425Z,99775.00
2023-06-05T09:15:52.451Z,99780.31
2023-06-05T09:18:06.998Z,99776.66
2023-06-05T09:20:25.123Z,99775.22
2023-06-05T09:22:37.140Z,99770.16
2023-06-05T09:24:42.867Z,99774.13
2023-06-05T09:26:59.422Z,99779.47
2023-06-05T09:29:03.894Z,99770.75
2023-06-05T09:31:06.967Z,99779.16
2023-06-05T09:33:10.810Z,99776.03
2023-06-05T09:35:18.358Z,99758.88
2023-06-05T09:37:34.527Z,99759.91
2023-06-05T09:39:38.677Z,99760.66
2023-06-05T09:41:46.173Z,99762.63
2023-06-05T09:43:51.882Z,99757.81
2023-06-05T09:45:55.459Z,99761.63
2023-06-05T09:48:15.728Z,99754.97
2023-06-05T09:50:24.430Z,99753.69
2023-06-05T09:52:27.609Z,99763.81
2023-06-05T09:54:32.241Z,99751.47
2023-06-05T09:56:36.835Z,99762.47
2023-06-05T09:58:44.787Z,99764.91
2023-06-05T10:00:48.168Z,99756.22
2023-06-05T10:02:54.372Z,99752.38
2023-06-05T10:05:01.279Z,99758.94
2023-06-05T10:07:06.207Z,99749.50
2023-06-05T10:09:11.025Z,99745.16
2023-06-05T10:11:14.339Z,99747.41
2023-06-05T10:13:19.535Z,99738.13
2023-06-05T10:15:23.930Z,99748.72
2023-06-05T10:17:28.237Z,99739.28
2023-06-05T10:19:31.840Z,99743.88
2023-06-05T10:21:35.570Z,99741.19
2023-06-05T10:23:39.114Z,99724.22
2023-06-05T10:25:42.992Z,99735.03
2023-06-05T10:27:58.141Z,99730.84
2023-06-05T10:30:39.410Z,99728.53
2023-06-05T10:32:55.066Z,99727.63
2023-06-05T10:35:07.680Z,99729.03
2023-06-05T10:37:43.101Z,99722.38
2023-06-05T10:39:47.796Z,99722.53
2023-06-05T10:41:52.734Z,99733.91
2023-06-05T10:43:56.920Z,99724.47
2023-06-05T10:48:09.281Z,99730.03
2023-06-05T10:50:26.793Z,99725.56
2023-06-05T10:52:39.325Z,99731.47
2023-06-05T10:54:58.468Z,99720.41
2023-06-05T10:57:04.599Z,99723.66
2023-06-05T10:59:17.301Z,99716.41
2023-06-05T11:01:22.803Z,99714.44
2023-06-05T11:03:40.110Z,99718.19
2023-06-05T11:06:14.157Z,99700.63
2023-06-05T11:08:19.808Z,99711.69
2023-06-05T11:10:23.295Z,99711.72
2023-06-05T11:12:26.384Z,99711.84
2023-06-05T11:14:48.756Z,99710.38
2023-06-05T11:16:56.214Z,99709.94
2023-06-05T11:19:37.070Z,99714.94
2023-06-05T11:22:04.960Z,99715.38
2023-06-05T11:24:19.966Z,99702.59
2023-06-05T11:26:42.644Z,99707.78
2023-06-05T11:28:45.864Z,99706.63
2023-06-05T11:30:50.102Z,99706.63
2023-06-05T11:32:59.784Z,99696.88
2023-06-05T11:35:03.284Z,99699.25
2023-06-05T11:37:23.067Z,99689.06
2023-06-05T11:39:31.349Z,99698.75
2023-06-05T11:41:34.367Z,99698.81
2023-06-05T11:43:44.684Z,99692.50
2023-06-05T11:45:52.155Z,99684.28
2023-06-05T11:48:05.502Z,99688.31
2023-06-05T11:50:12.326Z,99681.31
2023-06-05T11:52:20.439Z,99679.88
2023-06-05T11:54:27.880Z,99678.56
2023-06-05T11:56:31.209Z,99681.47
2023-06-05T11:58:38.537Z,99681.56
2023-06-05T12:00:42.112Z,99678.50
2023-06-05T12:02:45.413Z,99692.19
2023-06-05T12:04:50.298Z,99676.50
2023-06-05T12:06:54.539Z,99681.00
2023-06-05T12:09:10.629Z,99683.44
2023-06-05T12:11:23.683Z,99678.81
2023-06-05T12:13:51.035Z,99669.13
2023-06-05T12:16:00.682Z,99672.56
2023-06-05T12:18:05.000Z,99670.94
2023-06-05T12:20:10.345Z,99673.88
2023-06-05T12:22:14.367Z,99667.50
2023-06-05T12:24:24.251Z,99663.31
2023-06-05T12:26:27.516Z,99665.25
2023-06-05T12:28:31.382Z,99657.78
2023-06-05T12:30:42.181Z,99658.75
2023-06-05T12:32:45.565Z,99655.81
2023-06-05T12:37:00.484Z,99651.31
2023-06-05T12:39:07.947Z,99648.28
2023-06-05T12:41:11.399Z,99648.22
2023-06-05T12:43:21.613Z,99650.84
2023-06-05T12:45:24.635Z,99652.22
2023-06-05T12:47:27.818Z,99651.91
2023-06-05T12:49:30.918Z,99654.06
2023-06-05T12:51:34.808Z,99642.81
2023-06-05T12:53:39.217Z,99637.63
2023-06-05T12:55:42.647Z,99638.94
2023-06-05T12:57:46.613Z,99636.38
2023-06-05T12:59:49.792Z,99629.38
2023-06-05T13:01:52.975Z,99632.63
2023-06-05T13:03:56.426Z,99629.84
2023-06-05T13:05:59.653Z,99634.69
2023-06-05T13:08:04.450Z,99627.84
2023-06-05T13:10:12.623Z,99624.28
2023-06-05T13:12:15.811Z,99624.72
2023-06-05T13:14:18.795Z,99621.31
2023-06-05T13:16:21.877Z,99626.22
2023-06-05T13:18:24.905Z,99628.03
2023-06-05T13:20:28.758Z,99614.56
2023-06-05T13:22:32.080Z,99615.91
2023-06-05T13:24:35.113Z,99621.69
2023-06-05T13:26:39.641Z,99609.38
2023-06-05T13:28:44.192Z,99614.44
2023-06-05T13:30:49.011Z,99604.25
2023-06-05T13:32:55.410Z,99600.50
2023-06-05T13:34:58.784Z,99600.97
2023-06-05T13:37:10.167Z,99605.50
2023-06-05T13:39:16.452Z,99602.50
2023-06-05T13:41:20.631Z,99596.03
2023-06-05T13:43:25.012Z,99601.94
2023-06-05T13:45:28.291Z,99601.47
2023-06-05T13:47:31.275Z,99601.13
2023-06-05T13:49:34.319Z,99599.97
2023-06-05T13:51:39.477Z,99592.84
2023-06-05T13:53:42.509Z,99602.25
2023-06-05T13:55:45.509Z,99602.91
2023-06-05T13:57:48.527Z,99595.75
2023-06-05T13:59:52.950Z,99594.84
2023-06-05T14:01:56.024Z,99592.88
2023-06-05T14:03:59.074Z,99589.63
2023-06-05T14:06:02.145Z,99584.41
2023-06-05T14:08:06.140Z,99584.31
2023-06-05T14:10:10.046Z,99587.69
2023-06-05T14:12:13.182Z,99575.16
2023-06-05T14:14:16.212Z,99570.66
2023-06-05T14:16:21.590Z,99584.44
2023-06-05T14:18:26.979Z,99579.59
2023-06-05T14:20:31.230Z,99575.34
2023-06-05T14:22:34.384Z,99581.19
2023-06-05T14:24:37.363Z,99568.88
2023-06-05T14:26:40.501Z,99572.72
2023-06-05T14:28:43.545Z,99577.28
2023-06-05T14:30:47.104Z,99570.59
2023-06-05T14:32:51.730Z,99567.84
2023-06-05T14:34:54.762Z,99583.09
2023-06-05T14:36:57.732Z,99571.09
2023-06-05T14:39:00.816Z,99573.38
2023-06-05T14:41:03.938Z,99568.34
2023-06-05T14:43:07.347Z,99577.06
2023-06-05T14:45:11.288Z,99573.69
2023-06-05T14:47:14.378Z,99570.41
2023-06-05T14:49:19.797Z,99573.25
2023-06-05T14:51:22.854Z,99569.59
2023-06-05T14:53:26.457Z,99578.66
2023-06-05T14:55:29.529Z,99564.47
2023-06-05T14:57:32.588Z,99569.00
2023-06-05T14:59:35.825Z,99564.69
2023-06-05T15:01:38.810Z,99561.94
2023-06-05T15:03:42.112Z,99556.75
2023-06-05T15:05:46.719Z,99560.00
2023-06-05T15:07:49.853Z,99555.16
2023-06-05T15:09:52.831Z,99559.13
2023-06-05T15:11:56.939Z,99557.22
2023-06-05T15:13:59.982Z,99554.16
2023-06-05T15:16:03.255Z,99559.16
2023-06-05T15:18:06.559Z,99560.34
2023-06-05T15:20:10.807Z,99557.69
2023-06-05T15:22:15.182Z,99553.59
2023-06-05T15:24:18.547Z,99562.09
2023-06-05T15:26:22.491Z,99560.19
2023-06-05T15:28:25.764Z,99559.38
2023-06-05T15:30:28.798Z,99560.50
2023-06-05T15:32:32.083Z,99559.16
2023-06-05T15:34:35.210Z,99567.69
2023-06-05T15:36:38.648Z,99564.19
2023-06-05T15:38:43.288Z,99561.19
2023-06-05T15:40:46.706Z,99563.16
2023-06-05T15:43:06.294Z,99560.72
2023-06-05T15:45:10.240Z,99558.78
2023-06-05T15:47:13.301Z,99555.09
2023-06-05T15:49:16.281Z,99557.66
2023-06-05T15:51:19.382Z,99564.78
2023-06-05T15:53:22.522Z,99561.03
2023-06-05T15:55:26.962Z,99563.09
2023-06-05T15:57:29.965Z,99558.22
2023-06-05T15:59:33.402Z,99558.09
2023-06-05T16:01:36.440Z,99552.72
2023-06-05T16:03:39.557Z,99553.84
2023-06-05T16:05:42.752Z,99556.09
2023-06-05T16:07:46.133Z,99565.78
2023-06-05T16:09:49.142Z,99569.72
2023-06-05T16:11:53.567Z,99558.56
2023-06-05T16:13:56.603Z,99570.72
2023-06-05T16:15:59.490Z,99565.31
2023-06-05T16:18:02.628Z,99567.25
2023-06-05T16:20:07.251Z,99559.53
2023-06-05T16:22:10.223Z,99559.22
2023-06-05T16:24:13.359Z,99558.28
2023-06-05T16:26:16.783Z,99561.44
2023-06-05T16:28:21.313Z,99562.97
2023-06-05T16:30:24.662Z,99569.56
2023-06-05T16:32:27.649Z,99562.66
2023-06-05T16:34:33.412Z,99557.16
2023-06-05T16:36:37.772Z,99559.41
2023-06-05T16:38:41.320Z,99561.53
2023-06-05T16:40:44.305Z,99557.47
2023-06-05T16:42:47.333Z,99557.97
2023-06-05T16:44:51.854Z,99566.47
2023-06-05T16:46:54.881Z,99570.03
2023-06-05T16:48:57.846Z,99563.19
2023-06-05T16:51:00.911Z,99564.00
2023-06-05T16:53:03.922Z,99565.63
2023-06-05T16:55:07.392Z,99562.38
2023-06-05T16:57:10.815Z,99565.88
2023-06-05T16:59:15.069Z,99551.69
2023-06-05T17:01:20.336Z,99568.75
2023-06-05T17:03:23.604Z,99569.06
2023-06-05T17:05:26.985Z,99569.75
2023-06-05T17:07:30.580Z,99562.81
2023-06-05T17:09:33.894Z,99566.25
2023-06-05T17:11:37.361Z,99571.53
2023-06-05T17:13:40.333Z,99567.28
2023-06-05T17:15:43.696Z,99565.00
2023-06-05T17:17:48.195Z,99564.63
2023-06-05T17:19:51.237Z,99565.56
2023-06-05T17:21:54.191Z,99572.47
2023-06-05T17:23:57.450Z,99562.81
2023-06-05T17:26:00.551Z,99554.41
2023-06-05T17:28:04.121Z,99555.06
2023-06-05T17:30:08.158Z,99562.75
2023-06-05T17:32:12.415Z,99557.06
2023-06-05T17:34:16.895Z,99560.31
2023-06-05T17:36:19.910Z,99557.69
2023-06-05T17:38:22.946Z,99557.19
2023-06-05T17:40:27.118Z,99552.56
2023-06-05T17:42:30.175Z,99554.22
2023-06-05T17:44:33.895Z,99557.53
2023-06-05T17:46:37.088Z,99554.13
2023-06-05T17:48:40.317Z,99558.88
2023-06-05T17:50:45.235Z,99552.06
2023-06-05T17:52:49.064Z,99548.97
2023-06-05T17:54:51.988Z,99555.53
2023-06-05T17:56:57.555Z,99555.09
2023-06-05T17:59:00.392Z,99550.78
2023-06-05T18:01:03.908Z,99556.03
2023-06-05T18:03:07.256Z,99554.97
2023-06-05T18:05:10.595Z,99550.94
2023-06-05T18:07:16.791Z,99553.47
2023-06-05T18:09:19.659Z,99562.59
2023-06-05T18:11:25.311Z,99559.84
2023-06-05T18:13:28.435Z,99559.84
2023-06-05T18:15:31.524Z,99557.69
2023-06-05T18:17:34.864Z,99551.97
2023-06-05T18:19:39.440Z,99554.25
2023-06-05T18:21:42.536Z,99555.09
2023-06-05T18:23:48.215Z,99563.94
2023-06-05T18:25:51.183Z,99558.53
2023-06-05T18:27:55.895Z,99558.56
2023-06-05T18:29:59.582Z,99554.84
2023-06-05T18:32:02.683Z,99561.69
2023-06-05T18:34:05.868Z,99555.22
2023-06-05T18:36:09.005Z,99558.78
2023-06-05T18:38:13.258Z,99554.97
2023-06-05T18:40:18.546Z,99559.91
2023-06-05T18:42:21.500Z,99565.94
2023-06-05T18:44:24.852Z,99561.31
2023-06-05T18:46:28.121Z,99566.63
2023-06-05T18:48:31.553Z,99565.38
2023-06-05T18:50:34.522Z,99565.72
2023-06-05T18:52:37.541Z,99573.03
2023-06-05T18:54:43.149Z,99567.56
2023-06-05T18:56:50.058Z,99567.81
2023-06-05T18:58:53.431Z,99575.22
2023-06-05T19:00:56.762Z,99574.41
2023-06-05T19:03:05.133Z,99571.69
2023-06-05T19:05:09.434Z,99575.28
2023-06-05T19:07:12.432Z,99577.75
2023-06-05T19:09:15.558Z,99592.53
2023-06-05T19:11:18.715Z,99581.75
2023-06-05T19:13:23.363Z,99586.09
2023-06-05T19:15:26.934Z,99588.28
2023-06-05T19:17:29.877Z,99586.22
2023-06-05T19:19:32.925Z,99588.16
2023-06-05T19:21:38.061Z,99585.72
2023-06-05T19:23:42.346Z,99589.03
2023-06-05T19:25:45.440Z,99596.38
2023-06-05T19:27:48.618Z,99598.53
2023-06-05T19:29:53.134Z,99597.47
2023-06-05T19:31:56.066Z,99603.47
2023-06-05T19:34:00.330Z,99603.41
2023-06-05T19:36:03.515Z,99597.47
2023-06-05T19:38:06.594Z,99597.75
2023-06-05T19:40:10.177Z,99593.94
2023-06-05T19:42:13.377Z,99583.56
2023-06-05T19:44:16.384Z,99584.94
2023-06-05T19:46:21.089Z,99588.19
2023-06-05T19:48:24.069Z,99587.66
2023-06-05T19:50:27.199Z,99592.53
2023-06-05T19:52:31.381Z,99594.44
2023-06-05T19:54:34.326Z,99595.22
2023-06-05T19:56:37.341Z,99596.59
2023-06-05T19:58:40.374Z,99605.06
2023-06-05T20:00:43.502Z,99593.09
2023-06-05T20:02:48.060Z,99597.19
2023-06-05T20:04:51.047Z,99601.00
2023-06-05T20:06:54.662Z,99595.53
2023-06-05T20:08:57.624Z,99592.81
2023-06-05T20:11:00.453Z,99598.81
2023-06-05T20:13:03.438Z,99597.69
2023-06-05T20:15:07.572Z,99596.03
2023-06-05T20:17:10.527Z,99597.94
2023-06-05T20:19:15.814Z,99591.41
2023-06-05T20:21:18.836Z,99595.75
2023-06-05T20:23:21.755Z,99590.56
2023-06-05T20:25:26.724Z,99588.66
2023-06-05T20:27:29.631Z,99582.41
2023-06-05T20:29:32.385Z,99588.13
2023-06-05T20:31:35.320Z,99584.59
2023-06-05T20:33:38.253Z,99589.50
2023-06-05T20:35:46.463Z,99587.88
2023-06-05T20:37:49.225Z,99588.16
2023-06-05T20:39:52.180Z,99588.44
2023-06-05T20:41:55.427Z,99583.53
2023-06-05T20:43:58.953Z,99581.06
2023-06-05T20:46:03.484Z,99587.31
2023-06-05T20:48:14.450Z,99579.72
2023-06-05T20:50:22.074Z,99586.81
2023-06-05T20:52:26.735Z,99581.63
2023-06-05T20:54:30.015Z,99588.19
2023-06-05T20:56:33.037Z,99593.38
2023-06-05T20:58:35.960Z,99583.81
2023-06-05T21:00:38.907Z,99586.53
2023-06-05T21:02:41.992Z,99587.34
2023-06-05T21:04:51.054Z,99587.34
2023-06-05T21:06:54.476Z,99583.53
2023-06-05T21:08:59.035Z,99586.25
2023-06-05T21:11:01.954Z,99587.88
2023-06-05T21:13:04.973Z,99584.31
2023-06-05T21:15:08.784Z,99580.81
2023-06-05T21:17:11.846Z,99570.44
2023-06-05T21:19:14.844Z,99580.50
2023-06-05T21:21:17.792Z,99576.88
2023-06-05T21:23:21.090Z,99571.13
2023-06-05T21:25:25.662Z,99584.69
2023-06-05T21:27:29.107Z,99576.56
2023-06-05T21:29:32.450Z,99582.00
2023-06-05T21:31:44.440Z,99580.72
2023-06-05T21:33:47.529Z,99587.22
2023-06-05T21:35:50.530Z,99580.75
2023-06-05T21:37:53.460Z,99575.84
2023-06-05T21:39:56.345Z,99582.66
2023-06-05T21:42:00.835Z,99581.28
2023-06-05T21:44:03.775Z,99581.28
2023-06-05T21:46:06.832Z,99583.22
2023-06-05T21:48:09.852Z,99583.19
2023-06-05T21:50:12.959Z,99579.63
2023-06-05T21:52:18.206Z,99583.47
2023-06-05T21:54:21.283Z,99567.63
2023-06-05T21:56:24.465Z,99579.34
2023-06-05T21:58:29.022Z,99575.22
2023-06-05T22:00:32.526Z,99572.19
2023-06-05T22:02:35.664Z,99576.56
2023-06-05T22:04:39.093Z,99576.28
2023-06-05T22:06:42.083Z,99576.00
2023-06-05T22:08:45.094Z,99571.41
2023-06-05T22:10:48.046Z,99570.03
2023-06-05T22:12:51.764Z,99569.75
2023-06-05T22:14:56.316Z,99572.19
2023-06-05T22:17:00.592Z,99571.13
2023-06-05T22:19:03.515Z,99568.69
2023-06-05T22:21:12.625Z,99571.13
2023-06-05T22:23:15.876Z,99577.41
2023-06-05T22:25:18.745Z,99567.31
2023-06-05T22:27:25.242Z,99567.53
2023-06-05T22:29:29.562Z,99568.91
2023-06-05T22:31:34.475Z,99570.25
2023-06-05T22:33:37.624Z,99576.25
2023-06-05T22:35:40.954Z,99572.97
2023-06-05T22:37:45.017Z,99577.84
2023-06-05T22:39:48.060Z,99577.28
2023-06-05T22:41:51.039Z,99576.75
2023-06-05T22:43:54.194Z,99575.69
2023-06-05T22:45:57.310Z,99572.38
2023-06-05T22:48:02.371Z,99572.19
2023-06-05T22:50:08.362Z,99578.97
2023-06-05T22:52:16.425Z,99574.97
2023-06-05T22:54:19.364Z,99570.16
2023-06-05T22:56:22.801Z,99575.63
2023-06-05T22:58:25.737Z,99574.38
2023-06-05T23:00:28.808Z,99566.53
2023-06-05T23:02:31.758Z,99572.31
2023-06-05T23:04:42.441Z,99571.72
2023-06-05T23:06:46.157Z,99574.44
2023-06-05T23:08:50.002Z,99564.16
2023-06-05T23:10:53.042Z,99573.41
2023-06-05T23:12:56.084Z,99575.84
2023-06-05T23:14:59.353Z,99564.72
2023-06-05T23:17:02.571Z,99570.72
2023-06-05T23:19:05.484Z,99571.25
2023-06-05T23:21:10.248Z,99564.97
2023-06-05T23:23:13.404Z,99565.75
2023-06-05T23:25:18.060Z,99570.63
2023-06-05T23:27:21.054Z,99561.63
2023-06-05T23:29:24.103Z,99573.56
2023-06-05T23:31:27.026Z,99569.25
2023-06-05T23:33:30.165Z,99570.31
2023-06-05T23:35:33.075Z,99573.03
2023-06-05T23:37:37.863Z,99575.50
2023-06-05T23:39:40.885Z,99567.63
2023-06-05T23:41:47.518Z,99572.28
2023-06-05T23:43:52.128Z,99566.59
2023-06-05T23:45:55.061Z,99566.31
2023-06-05T23:47:58.468Z,99567.66
2023-06-05T23:50:01.687Z,99558.94
2023-06-05T23:52:05.349Z,99561.56
2023-06-05T23:54:11.054Z,99565.69
2023-06-05T23:56:14.014Z,99566.38
2023-06-05T23:58:17.233Z,99556.78
